Pottersville, Vermont
Current Conditions -  °F | °C
As of 2:54 AM on Saturday 29 Nov 2014 (Local Time) from KMVL Reporting Station
Broken Clouds Broken Clouds  
Wind Chill: -11°   Ceiling: 3500
Heat Index: -11°   Visibility: 10mi
Dew Point: -13°   Wind: 3mph
Humidity: 84%   Direction: 50°NE
Pressure: 30.21"   Gusts: NA
Location:  44.5359°N, 72.4842°W
Report Text: KMVL 290754Z AUTO 05003KT 10SM BKN035 M11/M13 A3021 RMK AO2 SLP247 I1000 T11111133 TSNO
Loading
Personal Weather Stations






























Interactive Weather Map New forecast layout! Learn more

10-Day Weather Forecast

Advertisements
Track Severe Weather on mobile